»·PEaware :: SCX154 KLAS-KPHX

SCX154 :: KLAS-KPHX

FLIGHT INFORMATION

Flight Status: Arrived
Operator:
Sun Country Airlines
More flights by this operator :: More flights under this callsign
Pilot: Ben F. (13029)
Aircraft: BOEING 737-800
(B738)
More flights by this aircraft type
Origin: KLAS McCarran Intl
United States
Destination: KPHX Phoenix Sky Harbor Intl
United States
More flights between these airports :: More routes between these airports
Route: +PRFUM4 PRFUM WOTRO BRUSR1
File this flight plan on PilotEdge
Remarks: RMK / SIMBRIEF
Altitude:
(Current/Filed)
35,000ft
Speed:
(Current/Filed)
455kts
Departed: 27-Mar-20 01:46 PM
Arrived: 27-Mar-20 02:41 PM
Distance/Time
Traveled:
222nm/0:55
Distance/Time
To Go:
Arrived

Flight Plot

Page will automatically refresh every two minutes.

Flight plan parsing failed; only flown route is shown


Map Options




Map Legend


Flown Route
Filed Route
Departure Airport
Arrival Airport
Navaid (VOR, NDB)
Fix

Horizontal Profiles

Position Reports

Time Latitude Longitude Heading Altitude Ground
Speed
27-Mar-20 13:08 36.080847 -115.136813 45 2121ft 0kts
27-Mar-20 13:09 36.080847 -115.136813 45 2121ft 0kts
27-Mar-20 13:10 36.080847 -115.136813 45 2121ft 0kts
27-Mar-20 13:11 36.080847 -115.136813 45 2121ft 0kts
27-Mar-20 13:12 36.080847 -115.136813 45 2121ft 0kts
27-Mar-20 13:13 36.080847 -115.136813 45 2121ft 0kts
27-Mar-20 13:14 36.080847 -115.136813 45 2121ft 0kts
27-Mar-20 13:15 36.080847 -115.136813 45 2121ft 0kts
27-Mar-20 13:16 36.080847 -115.136813 45 2121ft 0kts
27-Mar-20 13:17 36.080847 -115.136813 45 2121ft 0kts
27-Mar-20 13:18 36.080847 -115.136813 45 2121ft 0kts
27-Mar-20 13:19 36.080847 -115.136813 45 2121ft 0kts
27-Mar-20 13:20 36.080847 -115.136813 45 2121ft 0kts
27-Mar-20 13:21 36.080847 -115.136813 45 2121ft 0kts
27-Mar-20 13:22 36.080847 -115.136813 45 2121ft 0kts
27-Mar-20 13:23 36.080847 -115.136813 45 2121ft 0kts
27-Mar-20 13:24 36.080847 -115.136813 45 2121ft 0kts
27-Mar-20 13:25 36.080847 -115.136813 45 2121ft 0kts
27-Mar-20 13:26 36.080847 -115.136813 45 2121ft 0kts
27-Mar-20 13:27 36.080847 -115.136813 45 2121ft 0kts
27-Mar-20 13:28 36.080847 -115.136813 45 2121ft 0kts
27-Mar-20 13:29 36.080847 -115.136813 45 2121ft 0kts
27-Mar-20 13:30 36.080847 -115.136813 45 2121ft 0kts
27-Mar-20 13:31 36.080846 -115.136813 45 2121ft 0kts
27-Mar-20 13:32 36.080617 -115.137069 41 2121ft 2kts
27-Mar-20 13:33 36.080236 -115.137483 41 2121ft 0kts
27-Mar-20 13:34 36.080237 -115.137482 41 2121ft 0kts
27-Mar-20 13:35 36.080237 -115.137482 41 2121ft 0kts
27-Mar-20 13:36 36.080163 -115.137253 150 2121ft 5kts
27-Mar-20 13:37 36.078249 -115.132483 90 2121ft 21kts
27-Mar-20 13:38 36.078238 -115.122966 97 2121ft 26kts
27-Mar-20 13:39 36.077444 -115.121493 143 2121ft 0kts
27-Mar-20 13:40 36.077439 -115.121489 144 2121ft 0kts
27-Mar-20 13:41 36.077439 -115.121489 144 2121ft 0kts
27-Mar-20 13:42 36.077439 -115.121489 144 2121ft 0kts
27-Mar-20 13:43 36.077439 -115.121489 144 2121ft 0kts
27-Mar-20 13:44 36.077342 -115.121426 157 2121ft 4kts
27-Mar-20 13:45 36.076362 -115.137557 271 2129ft 154kts
27-Mar-20 13:46 36.076604 -115.189327 272 4724ft 151kts
27-Mar-20 13:47 36.064165 -115.240402 241 6309ft 171kts
27-Mar-20 13:48 36.015343 -115.281411 204 7110ft 275kts
27-Mar-20 13:49 35.935021 -115.288059 166 9253ft 324kts
27-Mar-20 13:50 35.859939 -115.224574 118 12141ft 346kts
27-Mar-20 13:51 35.830000 -115.109829 104 14813ft 361kts
27-Mar-20 13:52 35.827993 -114.985482 82 17238ft 374kts
27-Mar-20 13:53 35.837864 -114.855263 82 19008ft 392kts
27-Mar-20 13:54 35.847744 -114.721208 82 20794ft 397kts
27-Mar-20 13:55 35.841125 -114.584540 110 22775ft 412kts
27-Mar-20 13:56 35.783750 -114.461030 124 24613ft 423kts
27-Mar-20 13:57 35.719685 -114.340771 124 26311ft 433kts
27-Mar-20 13:58 35.653320 -114.216179 124 28199ft 432kts
27-Mar-20 13:59 35.587403 -114.092859 125 30004ft 429kts
27-Mar-20 14:00 35.521712 -113.970386 125 31631ft 426kts
27-Mar-20 14:02 35.456442 -113.849582 125 33081ft 425kts
27-Mar-20 14:03 35.391372 -113.729178 125 34453ft 422kts
27-Mar-20 14:04 35.326575 -113.609689 125 35045ft 420kts
27-Mar-20 14:05 35.262314 -113.491619 125 35055ft 420kts
27-Mar-20 14:06 35.194677 -113.367734 125 35055ft 453kts
27-Mar-20 14:07 35.122796 -113.236553 125 35035ft 478kts
27-Mar-20 14:08 35.050078 -113.103854 126 35004ft 477kts
27-Mar-20 14:09 34.975620 -112.969319 127 34982ft 480kts
27-Mar-20 14:10 34.900921 -112.834714 130 34979ft 476kts
27-Mar-20 14:11 34.848645 -112.740833 131 34987ft 472kts
27-Mar-20 14:12 34.774773 -112.608611 131 34988ft 474kts
27-Mar-20 14:13 34.698344 -112.479407 142 34998ft 462kts
27-Mar-20 14:14 34.603195 -112.382952 149 35006ft 455kts
27-Mar-20 14:15 34.503900 -112.286065 149 34995ft 456kts
27-Mar-20 14:16 34.395931 -112.217789 173 34999ft 429kts
27-Mar-20 14:17 34.279707 -112.187007 176 34995ft 426kts
27-Mar-20 14:18 34.164684 -112.157275 176 33058ft 423kts
27-Mar-20 14:19 34.050060 -112.127758 175 29764ft 433kts
27-Mar-20 14:20 33.931032 -112.097736 174 25869ft 444kts
27-Mar-20 14:20 33.832154 -112.073836 174 24046ft 429kts
27-Mar-20 14:21 33.711492 -112.047048 167 24025ft 445kts
27-Mar-20 14:22 33.620881 -111.938168 135 24033ft 472kts
27-Mar-20 14:24 33.498673 -111.836114 140 22255ft 459kts
27-Mar-20 14:25 33.469978 -111.691678 89 19434ft 458kts
27-Mar-20 14:25 33.513855 -111.581862 49 16995ft 439kts
27-Mar-20 14:26 33.587851 -111.469416 49 13989ft 414kts
27-Mar-20 14:27 33.673693 -111.415452 334 11106ft 343kts
27-Mar-20 14:28 33.730074 -111.495825 299 8172ft 310kts
27-Mar-20 14:29 33.767787 -111.580668 262 7053ft 259kts
27-Mar-20 14:30 33.712483 -111.628654 199 7038ft 266kts
27-Mar-20 14:31 33.641527 -111.654203 199 6281ft 263kts
27-Mar-20 14:32 33.572036 -111.679366 199 5293ft 258kts
27-Mar-20 14:33 33.506880 -111.702932 201 4986ft 210kts
27-Mar-20 14:34 33.467812 -111.746490 230 4542ft 176kts
27-Mar-20 14:35 33.435294 -111.789359 229 4533ft 165kts
27-Mar-20 14:36 33.414952 -111.836344 282 4183ft 174kts
27-Mar-20 14:37 33.428092 -111.891851 273 3113ft 164kts
27-Mar-20 14:38 33.434485 -111.938826 294 2052ft 136kts
27-Mar-20 14:39 33.441027 -111.984395 265 1288ft 133kts
27-Mar-20 14:40 33.439997 -112.004682 183 1119ft 4kts
27-Mar-20 14:41 33.438889 -112.007565 241 1119ft 19kts
27-Mar-20 14:42 33.438228 -112.008465 235 1119ft 0kts
27-Mar-20 14:43 33.438228 -112.008465 235 1119ft 0kts

Navigation Log

Ident Type
Flight plan parsing failed, navigation log unavailable